createdAt,value
2023-03-17T00:01:56.042Z,2.53
2023-03-17T00:06:59.779Z,2.50
2023-03-17T00:12:01.678Z,2.53
2023-03-17T00:17:03.607Z,2.73
2023-03-17T00:22:13.570Z,2.30
2023-03-17T00:27:16.854Z,2.80
2023-03-17T00:32:19.386Z,2.83
2023-03-17T00:37:22.957Z,2.00
2023-03-17T00:42:24.672Z,2.30
2023-03-17T00:47:26.681Z,1.90
2023-03-17T00:52:29.706Z,2.67
2023-03-17T00:57:31.401Z,2.57
2023-03-17T01:02:33.289Z,2.37
2023-03-17T01:07:37.105Z,2.40
2023-03-17T01:12:38.943Z,2.17
2023-03-17T01:17:41.691Z,2.30
2023-03-17T01:22:45.202Z,2.10
2023-03-17T01:27:47.081Z,2.30
2023-03-17T01:32:48.918Z,2.40
2023-03-17T01:37:52.245Z,2.00
2023-03-17T01:42:54.829Z,2.00
2023-03-17T01:47:56.561Z,2.40
2023-03-17T01:52:59.564Z,2.57
2023-03-17T01:58:01.344Z,2.30
2023-03-17T02:03:03.850Z,2.23
2023-03-17T02:08:11.106Z,2.20
2023-03-17T02:13:12.985Z,2.60
2023-03-17T02:18:15.424Z,2.60
2023-03-17T02:23:21.027Z,2.50
2023-03-17T02:28:25.885Z,2.53
2023-03-17T02:33:27.719Z,2.53
2023-03-17T02:38:31.784Z,2.30
2023-03-17T02:43:35.823Z,2.73
2023-03-17T02:48:37.989Z,2.67
2023-03-17T02:53:41.067Z,2.33
2023-03-17T02:58:42.812Z,2.50
2023-03-17T03:03:44.548Z,2.60
2023-03-17T03:08:47.769Z,2.80
2023-03-17T03:13:49.641Z,2.97
2023-03-17T03:18:51.502Z,4.60
2023-03-17T03:23:54.811Z,3.20
2023-03-17T03:28:58.347Z,2.80
2023-03-17T03:34:00.215Z,2.90
2023-03-17T03:39:03.499Z,3.37
2023-03-17T03:44:05.554Z,2.80
2023-03-17T03:49:07.439Z,3.10
2023-03-17T03:54:10.463Z,3.60
2023-03-17T03:59:12.594Z,5.90
2023-03-17T04:04:14.276Z,4.00
2023-03-17T04:09:17.530Z,3.63
2023-03-17T04:14:19.497Z,3.23
2023-03-17T04:19:24.039Z,2.80
2023-03-17T04:24:27.734Z,3.83
2023-03-17T04:29:29.553Z,3.73
2023-03-17T04:34:31.287Z,3.10
2023-03-17T04:39:34.342Z,3.60
2023-03-17T04:44:36.512Z,4.40
2023-03-17T04:49:38.437Z,3.77
2023-03-17T04:54:42.189Z,4.40
2023-03-17T04:59:44.197Z,4.03
2023-03-17T05:04:46.109Z,4.30
2023-03-17T05:09:49.160Z,3.70
2023-03-17T05:14:50.882Z,4.47
2023-03-17T05:19:52.614Z,4.87
2023-03-17T05:24:55.673Z,8.33
2023-03-17T05:29:57.658Z,6.80
2023-03-17T05:34:59.429Z,4.73
2023-03-17T05:40:03.073Z,5.70
2023-03-17T05:45:05.704Z,4.80
2023-03-17T05:50:09.407Z,5.07
2023-03-17T05:55:12.447Z,4.90
2023-03-17T06:00:16.181Z,5.60
2023-03-17T06:05:18.031Z,6.07
2023-03-17T06:10:21.407Z,6.60
2023-03-17T06:15:23.116Z,6.20
2023-03-17T06:20:25.078Z,5.40
2023-03-17T06:25:28.272Z,4.73
2023-03-17T06:30:30.528Z,5.77
2023-03-17T06:35:33.202Z,5.00
2023-03-17T06:40:36.921Z,4.60
2023-03-17T06:45:38.869Z,4.53
2023-03-17T06:50:40.649Z,4.80
2023-03-17T06:55:43.745Z,5.60
2023-03-17T07:00:45.490Z,4.90
2023-03-17T07:05:47.719Z,5.37
2023-03-17T07:10:51.445Z,5.03
2023-03-17T07:15:55.361Z,5.00
2023-03-17T07:20:57.371Z,5.27
2023-03-17T07:26:00.536Z,5.83
2023-03-17T07:31:02.796Z,5.70
2023-03-17T07:36:07.089Z,5.47
2023-03-17T07:41:10.822Z,4.67
2023-03-17T07:46:12.715Z,4.50
2023-03-17T07:51:15.443Z,5.43
2023-03-17T07:56:18.506Z,5.10
2023-03-17T08:01:20.219Z,4.93
2023-03-17T08:06:22.096Z,4.45
2023-03-17T08:11:25.112Z,4.40
2023-03-17T08:16:27.559Z,4.05
2023-03-17T08:21:29.288Z,4.13
2023-03-17T08:26:32.499Z,4.00
2023-03-17T08:31:34.383Z,3.97
2023-03-17T08:36:36.123Z,3.97
2023-03-17T08:41:39.150Z,4.23
2023-03-17T08:46:40.934Z,3.90
2023-03-17T08:51:43.928Z,4.33
2023-03-17T08:56:47.006Z,3.90
2023-03-17T09:01:48.741Z,5.47
2023-03-17T09:07:02.869Z,4.40
2023-03-17T09:12:07.322Z,3.88
2023-03-17T09:17:09.624Z,4.43
2023-03-17T09:22:13.336Z,4.18
2023-03-17T09:27:16.356Z,3.60
2023-03-17T09:32:18.056Z,3.85
2023-03-17T09:37:19.746Z,3.80
2023-03-17T09:42:34.765Z,3.40
2023-03-17T09:47:56.554Z,3.42
2023-03-17T09:52:58.395Z,2.78
2023-03-17T09:58:03.331Z,2.92
2023-03-17T10:03:06.228Z,2.78
2023-03-17T10:08:28.942Z,2.38
2023-03-17T10:13:42.506Z,2.25
2023-03-17T10:18:48.151Z,2.88
2023-03-17T10:23:49.804Z,2.10
2023-03-17T10:28:52.809Z,2.25
2023-03-17T10:33:54.469Z,2.30
2023-03-17T10:38:56.395Z,2.40
2023-03-17T10:43:59.431Z,3.25
2023-03-17T10:49:05.502Z,2.55
2023-03-17T10:54:09.506Z,2.67
2023-03-17T10:59:17.825Z,3.78
2023-03-17T11:04:26.413Z,2.88
2023-03-17T11:09:30.430Z,2.50
2023-03-17T11:14:33.589Z,2.77
2023-03-17T11:19:43.646Z,2.60
2023-03-17T11:24:51.588Z,2.50
2023-03-17T11:30:14.925Z,3.80
2023-03-17T11:35:24.327Z,2.80
2023-03-17T11:40:29.448Z,3.00
2023-03-17T11:45:33.569Z,3.13
2023-03-17T11:50:39.241Z,2.90
2023-03-17T11:55:43.424Z,4.03
2023-03-17T12:00:50.710Z,4.10
2023-03-17T12:05:55.553Z,3.10
2023-03-17T12:10:57.725Z,2.93
2023-03-17T12:16:04.308Z,3.20
2023-03-17T12:21:09.538Z,2.87
2023-03-17T12:26:12.305Z,3.23
2023-03-17T12:31:17.534Z,4.60
2023-03-17T12:36:19.294Z,3.07
2023-03-17T12:41:28.878Z,2.93
2023-03-17T12:46:53.970Z,4.43
2023-03-17T12:52:01.435Z,3.40
2023-03-17T12:57:04.370Z,3.93
2023-03-17T13:02:15.508Z,3.60
2023-03-17T13:07:18.923Z,3.00
2023-03-17T13:12:58.304Z,2.90
2023-03-17T13:18:36.702Z,3.10
2023-03-17T13:23:42.080Z,2.73
2023-03-17T13:28:47.210Z,2.20
2023-03-17T13:33:51.325Z,3.10
2023-03-17T13:39:37.357Z,2.77
2023-03-17T13:45:07.091Z,3.20
2023-03-17T13:50:12.514Z,3.30
2023-03-17T13:55:36.614Z,2.73
2023-03-17T14:00:38.817Z,3.50
2023-03-17T14:05:40.575Z,3.40
2023-03-17T14:10:44.565Z,3.47
2023-03-17T14:15:48.607Z,3.10
2023-03-17T14:20:53.577Z,3.30
2023-03-17T14:25:56.896Z,2.90
2023-03-17T14:31:00.052Z,3.30
2023-03-17T14:36:02.676Z,2.90
2023-03-17T14:41:07.876Z,2.90
2023-03-17T14:46:13.676Z,2.70
2023-03-17T14:51:23.234Z,2.47
2023-03-17T14:56:31.595Z,2.07
2023-03-17T15:01:36.219Z,2.03
2023-03-17T15:06:47.050Z,2.03
2023-03-17T15:11:50.223Z,1.70
2023-03-17T15:16:52.435Z,1.97
2023-03-17T15:21:56.985Z,1.70
2023-03-17T15:27:01.298Z,1.97
2023-03-17T15:32:10.273Z,1.97
2023-03-17T15:37:16.065Z,2.10
2023-03-17T15:42:20.268Z,2.50
2023-03-17T15:47:23.282Z,2.10
2023-03-17T15:52:25.675Z,4.60
2023-03-17T15:57:28.885Z,10.90
2023-03-17T16:02:31.742Z,11.97
2023-03-17T16:07:34.089Z,5.47
2023-03-17T16:12:37.173Z,3.10
2023-03-17T16:17:39.158Z,2.20
2023-03-17T16:22:42.050Z,2.50
2023-03-17T16:27:45.187Z,2.93
2023-03-17T16:32:47.257Z,3.40
2023-03-17T16:37:51.815Z,4.23
2023-03-17T16:42:54.909Z,3.70
2023-03-17T16:47:57.067Z,2.77
2023-03-17T16:52:58.996Z,3.67
2023-03-17T16:58:03.872Z,4.47
2023-03-17T17:03:05.640Z,7.73
2023-03-17T17:08:07.405Z,9.10
2023-03-17T17:13:11.422Z,9.40
2023-03-17T17:18:14.509Z,7.33
2023-03-17T17:23:18.652Z,6.70
2023-03-17T17:28:22.646Z,5.93
2023-03-17T17:33:25.860Z,42.23
2023-03-17T17:38:28.787Z,7.70
2023-03-17T17:43:31.994Z,6.90
2023-03-17T17:48:34.295Z,4.90
2023-03-17T17:53:36.783Z,5.60
2023-03-17T17:58:39.793Z,6.60
2023-03-17T18:03:43.188Z,9.70
2023-03-17T18:08:45.562Z,13.30
2023-03-17T18:13:48.653Z,15.97
2023-03-17T18:18:50.676Z,13.27
2023-03-17T18:23:55.198Z,14.10
2023-03-17T18:28:58.381Z,15.60
2023-03-17T18:34:03.042Z,13.43
2023-03-17T18:39:04.872Z,12.53
2023-03-17T18:44:10.010Z,11.33
2023-03-17T18:49:11.692Z,13.10
2023-03-17T18:54:13.604Z,13.07
2023-03-17T18:59:16.633Z,17.00
2023-03-17T19:04:18.318Z,18.00
2023-03-17T19:09:20.980Z,14.10
2023-03-17T19:14:24.511Z,10.50
2023-03-17T19:19:26.202Z,8.53
2023-03-17T19:24:28.005Z,7.13
2023-03-17T19:29:32.480Z,9.00
2023-03-17T19:34:34.213Z,6.80
2023-03-17T19:39:37.689Z,5.60
2023-03-17T19:44:41.201Z,7.80
2023-03-17T19:49:42.976Z,8.40
2023-03-17T19:54:45.942Z,7.90
2023-03-17T19:59:49.056Z,7.17
2023-03-17T20:04:51.123Z,7.13
2023-03-17T20:09:53.975Z,7.50
2023-03-17T20:14:57.066Z,7.00
2023-03-17T20:19:58.772Z,8.40
2023-03-17T20:25:00.628Z,7.37
2023-03-17T20:30:05.054Z,6.50
2023-03-17T20:35:08.263Z,6.63
2023-03-17T20:40:11.268Z,7.40
2023-03-17T20:45:14.948Z,6.93
2023-03-17T20:50:16.808Z,8.30
2023-03-17T20:55:19.616Z,10.73
2023-03-17T21:00:23.424Z,7.20
2023-03-17T21:05:26.205Z,8.40
2023-03-17T21:10:28.160Z,7.07
2023-03-17T21:15:31.419Z,6.60
2023-03-17T21:20:34.263Z,5.47
2023-03-17T21:25:36.192Z,6.40
2023-03-17T21:30:42.159Z,7.70
2023-03-17T21:35:43.964Z,8.97
2023-03-17T21:40:46.151Z,11.03
2023-03-17T21:45:49.445Z,11.90
2023-03-17T21:50:51.186Z,13.10
2023-03-17T21:55:53.174Z,11.80
2023-03-17T22:00:56.248Z,12.83
2023-03-17T22:05:58.648Z,13.40
2023-03-17T22:11:00.360Z,8.53
2023-03-17T22:16:04.219Z,8.13
2023-03-17T22:21:06.193Z,7.30
2023-03-17T22:26:09.185Z,6.67
2023-03-17T22:31:13.069Z,6.70
2023-03-17T22:36:15.240Z,6.27
2023-03-17T22:41:17.910Z,6.53
2023-03-17T22:46:24.299Z,6.70
2023-03-17T22:51:26.745Z,7.30
2023-03-17T22:56:28.427Z,7.47
2023-03-17T23:01:31.774Z,7.57
2023-03-17T23:06:35.128Z,8.13
2023-03-17T23:11:37.398Z,9.00
2023-03-17T23:16:40.805Z,7.83
2023-03-17T23:21:42.517Z,7.20
2023-03-17T23:26:44.491Z,7.83
2023-03-17T23:31:47.569Z,6.60
2023-03-17T23:36:49.285Z,6.97
2023-03-17T23:41:51.296Z,6.97
2023-03-17T23:46:54.331Z,7.43
2023-03-17T23:51:56.023Z,6.20
2023-03-17T23:56:57.694Z,6.23
